Presto, Pennsylvania
Current Conditions -  °F | °C
As of 3:53 AM on Friday 24 Oct 2014 (Local Time) from KAGC Reporting Station
Clear Clear  
Wind Chill: 40°   Ceiling: Unl
Heat Index: 44°   Visibility: 10mi
Dew Point: 38°   Wind: 7mph
Humidity: 79%   Direction: 290°WNW
Pressure: 30.07"   Gusts: NA
Location:  40.37°N, 80.12°W
Report Text: KAGC 240753Z 29006KT 10SM CLR 07/03 A3007 RMK AO2 SLP189 T00670033
Loading
Personal Weather Stations






























Interactive Weather Map
Tropical Storm Tracking
New forecast layout! Learn more

10-Day Weather Forecast

Advertisements
Track Severe Weather on mobile